Time,TemperatureF,DewpointF,PressureIn,WindDirection,WindDirectionDegrees,WindSpeedMPH,WindSpeedGustMPH,Humidity,HourlyPrecipIn,Conditions,Clouds,dailyrainin,SoftwareType,DateUTC
2013-11-09 00:01:00,33.4,29.4,30.09,SW,227,1.1,1.1,85,0.00,CLR,,0.00,WeatherDisplay:10.37,2013-11-09 05:01:00,
2013-11-09 00:02:00,33.4,29.4,30.09,SW,226,1.1,1.1,85,0.00,CLR,,0.00,WeatherDisplay:10.37,2013-11-09 05:02:00,
2013-11-09 00:04:00,33.4,29.1,30.09,SW,226,1.0,0.0,84,0.00,CLR,,0.00,WeatherDisplay:10.37,2013-11-09 05:04:00,
2013-11-09 00:07:00,33.5,29.2,30.09,SW,225,0.0,0.0,84,0.00,CLR,,0.00,WeatherDisplay:10.37,2013-11-09 05:07:00,
2013-11-09 00:10:00,33.6,29.0,30.09,SW,225,1.1,1.1,83,0.00,CLR,,0.00,WeatherDisplay:10.37,2013-11-09 05:10:00,
2013-11-09 00:15:00,33.9,29.0,30.09,SSW,209,2.3,0.0,82,0.00,CLR,,0.00,WeatherDisplay:10.37,2013-11-09 05:15:00,
2013-11-09 00:20:00,34.1,28.9,30.09,SSW,209,0.0,0.1,81,0.00,CLR,,0.00,WeatherDisplay:10.37,2013-11-09 05:20:00,
2013-11-09 00:25:00,34.4,28.9,30.09,SSW,209,0.0,0.0,80,0.00,CLR,,0.00,WeatherDisplay:10.37,2013-11-09 05:25:00,
2013-11-09 00:30:00,34.4,28.6,30.08,SSW,209,0.0,0.0,79,0.00,CLR,,0.00,WeatherDisplay:10.37,2013-11-09 05:30:00,
2013-11-09 00:35:00,34.4,28.9,30.08,SSW,209,2.3,0.0,80,0.00,CLR,,0.00,WeatherDisplay:10.37,2013-11-09 05:35:00,
2013-11-09 00:40:00,34.4,28.9,30.08,SSW,209,0.0,0.0,80,0.00,CLR,,0.00,WeatherDisplay:10.37,2013-11-09 05:40:00,
2013-11-09 00:45:00,34.4,28.6,30.08,SSW,209,0.0,0.0,79,0.00,CLR,,0.00,WeatherDisplay:10.37,2013-11-09 05:45:00,
2013-11-09 00:50:00,34.4,28.6,30.07,SSW,209,0.0,0.1,79,0.00,CLR,,0.00,WeatherDisplay:10.37,2013-11-09 05:50:00,
2013-11-09 00:55:00,34.4,28.6,30.07,SSW,209,0.0,0.0,79,0.00,CLR,,0.00,WeatherDisplay:10.37,2013-11-09 05:55:00,
2013-11-09 01:00:00,34.4,28.6,30.07,SSW,209,0.0,0.0,79,0.00,CLR,,0.00,WeatherDisplay:10.37,2013-11-09 06:00:00,
2013-11-09 01:05:00,34.4,28.9,30.07,SSW,209,2.3,2.3,80,0.00,CLR,,0.00,WeatherDisplay:10.37,2013-11-09 06:05:00,
2013-11-09 01:10:00,34.4,28.6,30.07,SSW,209,3.5,3.5,79,0.00,CLR,,0.00,WeatherDisplay:10.37,2013-11-09 06:10:00,
2013-11-09 01:15:00,34.6,28.8,30.07,SSW,209,0.0,0.0,79,0.00,CLR,,0.00,WeatherDisplay:10.37,2013-11-09 06:15:00,
2013-11-09 01:20:00,34.6,29.1,30.06,SSW,208,1.1,0.0,80,0.00,CLR,,0.00,WeatherDisplay:10.37,2013-11-09 06:20:00,
2013-11-09 01:25:00,34.7,29.2,30.06,SSW,205,1.0,1.0,80,0.00,CLR,,0.00,WeatherDisplay:10.37,2013-11-09 06:25:00,
2013-11-09 01:30:00,34.7,29.2,30.06,SSW,205,0.0,0.0,80,0.00,CLR,,0.00,WeatherDisplay:10.37,2013-11-09 06:30:00,
2013-11-09 01:35:00,34.7,29.2,30.06,SSW,203,2.3,2.3,80,0.00,CLR,,0.00,WeatherDisplay:10.37,2013-11-09 06:35:00,
2013-11-09 01:40:00,34.8,29.3,30.05,SSW,203,0.0,0.0,80,0.00,CLR,,0.00,WeatherDisplay:10.37,2013-11-09 06:40:00,
2013-11-09 01:45:00,34.8,29.3,30.05,SSW,202,1.1,0.0,80,0.00,CLR,,0.00,WeatherDisplay:10.37,2013-11-09 06:45:00,
2013-11-09 01:50:00,34.9,29.7,30.05,SSW,202,2.3,2.3,81,0.00,CLR,,0.00,WeatherDisplay:10.37,2013-11-09 06:50:00,
2013-11-09 01:55:00,34.9,29.4,30.04,SSW,198,3.5,3.5,80,0.00,CLR,,0.00,WeatherDisplay:10.37,2013-11-09 06:55:00,
2013-11-09 02:00:00,34.9,29.7,30.04,SSW,198,2.0,2.0,81,0.00,CLR,,0.00,WeatherDisplay:10.37,2013-11-09 07:00:00,
2013-11-09 02:06:00,34.8,29.6,30.03,South,190,0.0,0.0,81,0.00,CLR,,0.00,WeatherDisplay:10.37,2013-11-09 07:06:00,
2013-11-09 02:11:00,34.8,29.6,30.03,South,190,0.0,0.0,81,0.00,CLR,,0.00,WeatherDisplay:10.37,2013-11-09 07:11:00,
2013-11-09 02:16:00,34.7,29.5,30.03,South,186,2.3,2.3,81,0.00,CLR,,0.00,WeatherDisplay:10.37,2013-11-09 07:16:00,
2013-11-09 02:21:00,34.7,29.8,30.02,South,186,1.1,1.1,82,0.00,CLR,,0.00,WeatherDisplay:10.37,2013-11-09 07:21:00,
2013-11-09 02:26:00,34.8,29.9,30.02,South,185,3.5,3.5,82,0.00,CLR,,0.00,WeatherDisplay:10.37,2013-11-09 07:26:00,
2013-11-09 02:31:00,35.0,30.1,30.02,South,182,1.0,0.0,82,0.00,CLR,,0.00,WeatherDisplay:10.37,2013-11-09 07:31:00,
2013-11-09 02:36:00,35.2,30.0,30.02,South,177,0.0,0.0,81,0.00,CLR,,0.00,WeatherDisplay:10.37,2013-11-09 07:36:00,
2013-11-09 02:41:00,35.3,30.1,30.02,South,176,2.3,2.3,81,0.00,CLR,,0.00,WeatherDisplay:10.37,2013-11-09 07:41:00,
2013-11-09 02:46:00,35.5,30.2,30.02,SSE,162,4.6,4.6,81,0.00,CLR,,0.00,WeatherDisplay:10.37,2013-11-09 07:46:00,
2013-11-09 02:51:00,35.7,30.4,30.02,SSE,155,1.1,0.0,81,0.00,CLR,,0.00,WeatherDisplay:10.37,2013-11-09 07:51:00,
2013-11-09 02:56:00,35.8,30.2,30.01,SSE,154,1.1,0.0,80,0.00,CLR,,0.00,WeatherDisplay:10.37,2013-11-09 07:56:00,
2013-11-09 03:01:00,36.0,30.4,30.00,SSE,154,3.5,3.5,80,0.00,CLR,,0.00,WeatherDisplay:10.37,2013-11-09 08:01:00,
2013-11-09 03:06:00,36.1,30.5,29.99,ESE,123,3.5,3.5,80,0.00,CLR,,0.00,WeatherDisplay:10.37,2013-11-09 08:06:00,
2013-11-09 03:11:00,36.2,30.6,29.99,SE,126,1.1,1.1,80,0.00,CLR,,0.00,WeatherDisplay:10.37,2013-11-09 08:11:00,
2013-11-09 03:16:00,36.4,30.8,29.99,SE,129,3.5,3.5,80,0.00,CLR,,0.00,WeatherDisplay:10.37,2013-11-09 08:16:00,
2013-11-09 03:21:00,36.5,30.9,29.99,SE,131,3.5,3.5,80,0.00,CLR,,0.00,WeatherDisplay:10.37,2013-11-09 08:21:00,
2013-11-09 03:26:00,36.6,31.0,29.98,SE,134,4.0,4.0,80,0.00,CLR,,0.00,WeatherDisplay:10.37,2013-11-09 08:26:00,
2013-11-09 03:31:00,36.8,30.9,29.98,SE,133,2.3,2.3,79,0.00,CLR,,0.00,WeatherDisplay:10.37,2013-11-09 08:31:00,
2013-11-09 03:36:00,36.9,31.0,29.98,SSE,152,3.5,3.5,79,0.00,CLR,,0.00,WeatherDisplay:10.37,2013-11-09 08:36:00,
2013-11-09 03:41:00,37.0,31.1,29.97,SE,145,4.6,4.6,79,0.00,CLR,,0.00,WeatherDisplay:10.37,2013-11-09 08:41:00,
2013-11-09 03:46:00,37.1,31.2,29.97,ESE,115,3.5,3.5,79,0.00,CLR,,0.00,WeatherDisplay:10.37,2013-11-09 08:46:00,
2013-11-09 03:51:00,37.2,31.3,29.97,SE,143,4.0,4.0,79,0.00,CLR,,0.00,WeatherDisplay:10.37,2013-11-09 08:51:00,
2013-11-09 03:56:00,37.3,31.1,29.96,SE,132,9.2,9.2,78,0.00,CLR,,0.00,WeatherDisplay:10.37,2013-11-09 08:56:00,
2013-11-09 04:01:00,37.5,31.3,29.95,SSE,160,2.3,2.3,78,0.00,CLR,,0.00,WeatherDisplay:10.37,2013-11-09 09:01:00,
2013-11-09 04:06:00,37.7,31.5,29.95,SSE,161,3.5,3.5,78,0.00,CLR,,0.00,WeatherDisplay:10.37,2013-11-09 09:06:00,
2013-11-09 04:11:00,37.8,31.6,29.94,SE,135,9.2,9.2,78,0.00,CLR,,0.00,WeatherDisplay:10.37,2013-11-09 09:11:00,
2013-11-09 04:16:00,37.9,31.7,29.94,SE,143,7.0,7.0,78,0.00,CLR,,0.00,WeatherDisplay:10.37,2013-11-09 09:16:00,
2013-11-09 04:21:00,37.9,32.3,29.93,SE,145,2.3,2.3,80,0.00,CLR,,0.00,WeatherDisplay:10.37,2013-11-09 09:21:00,
2013-11-09 04:26:00,37.7,32.4,29.93,SE,130,9.2,9.2,81,0.00,CLR,,0.00,WeatherDisplay:10.37,2013-11-09 09:26:00,
2013-11-09 04:31:00,37.6,32.6,29.93,South,175,1.1,0.0,82,0.00,CLR,,0.00,WeatherDisplay:10.37,2013-11-09 09:31:00,
2013-11-09 04:36:00,37.4,33.0,29.93,South,173,1.1,0.0,84,0.00,CLR,,0.00,WeatherDisplay:10.37,2013-11-09 09:36:00,
2013-11-09 04:41:00,37.2,32.8,29.92,South,169,0.0,0.0,84,0.00,CLR,,0.00,WeatherDisplay:10.37,2013-11-09 09:41:00,
2013-11-09 04:46:00,37.1,33.0,29.91,SE,132,3.5,3.5,85,0.01,RA,,0.01,WeatherDisplay:10.37,2013-11-09 09:46:00,
2013-11-09 04:51:00,37.2,33.1,29.91,SE,127,3.5,3.5,85,0.01,RA,,0.01,WeatherDisplay:10.37,2013-11-09 09:51:00,
2013-11-09 04:56:00,37.2,33.1,29.90,ESE,121,7.0,7.0,85,0.01,,,0.01,WeatherDisplay:10.37,2013-11-09 09:56:00,
2013-11-09 05:01:00,37.3,33.2,29.90,SE,134,3.5,3.5,85,0.01,CLR,,0.01,WeatherDisplay:10.37,2013-11-09 10:01:00,
2013-11-09 05:06:00,37.3,32.9,29.89,SE,140,3.5,3.5,84,0.01,CLR,,0.01,WeatherDisplay:10.37,2013-11-09 10:06:00,
2013-11-09 05:11:00,37.4,33.0,29.89,SSE,161,5.8,5.8,84,0.01,CLR,,0.01,WeatherDisplay:10.37,2013-11-09 10:11:00,
2013-11-09 05:16:00,37.7,33.0,29.89,SE,126,4.6,4.6,83,0.01,CLR,,0.01,WeatherDisplay:10.37,2013-11-09 10:16:00,
2013-11-09 05:21:00,37.9,32.9,29.88,South,169,10.4,10.4,82,0.01,CLR,,0.01,WeatherDisplay:10.37,2013-11-09 10:21:00,
2013-11-09 05:26:00,38.2,32.6,29.87,SE,137,11.5,11.5,80,0.01,CLR,,0.01,WeatherDisplay:10.37,2013-11-09 10:26:00,
2013-11-09 05:31:00,38.4,32.8,29.87,SSE,155,6.9,6.9,80,0.01,CLR,,0.01,WeatherDisplay:10.37,2013-11-09 10:31:00,
2013-11-09 05:36:00,38.6,32.6,29.87,SSE,161,2.3,2.3,79,0.01,CLR,,0.01,WeatherDisplay:10.37,2013-11-09 10:36:00,
2013-11-09 05:41:00,38.7,32.4,29.87,SSE,165,6.9,6.9,78,0.01,CLR,,0.01,WeatherDisplay:10.37,2013-11-09 10:41:00,
2013-11-09 05:46:00,38.8,32.5,29.86,ESE,118,7.0,7.0,78,0.00,CLR,,0.01,WeatherDisplay:10.37,2013-11-09 10:46:00,
2013-11-09 05:51:00,39.0,32.4,29.85,South,170,6.9,6.9,77,0.00,CLR,,0.01,WeatherDisplay:10.37,2013-11-09 10:51:00,
2013-11-09 05:56:00,39.1,32.5,29.85,SE,146,9.2,9.2,77,0.00,CLR,,0.01,WeatherDisplay:10.37,2013-11-09 10:56:00,
2013-11-09 06:01:00,39.2,32.3,29.85,SSE,148,3.5,3.5,76,0.00,CLR,,0.01,WeatherDisplay:10.37,2013-11-09 11:01:00,
2013-11-09 06:06:00,39.3,32.4,29.85,South,173,1.1,1.1,76,0.00,CLR,,0.01,WeatherDisplay:10.37,2013-11-09 11:06:00,
2013-11-09 06:11:00,39.5,32.2,29.84,ESE,123,5.8,5.8,75,0.00,CLR,,0.01,WeatherDisplay:10.37,2013-11-09 11:11:00,
2013-11-09 06:16:00,39.6,32.3,29.84,South,178,5.8,5.8,75,0.00,CLR,,0.01,WeatherDisplay:10.37,2013-11-09 11:16:00,
2013-11-09 06:21:00,39.7,32.4,29.84,South,179,2.0,2.1,75,0.00,CLR,,0.01,WeatherDisplay:10.37,2013-11-09 11:21:00,
2013-11-09 06:26:00,39.9,31.9,29.84,South,173,11.5,11.5,73,0.00,CLR,,0.01,WeatherDisplay:10.37,2013-11-09 11:26:00,
2013-11-09 06:31:00,40.1,32.1,29.84,South,178,10.4,10.4,73,0.00,CLR,,0.01,WeatherDisplay:10.37,2013-11-09 11:31:00,
2013-11-09 06:36:00,40.1,32.1,29.83,South,178,4.0,4.0,73,0.00,CLR,,0.01,WeatherDisplay:10.37,2013-11-09 11:36:00,
2013-11-09 06:41:00,40.3,32.0,29.83,South,172,5.8,5.8,72,0.00,CLR,,0.01,WeatherDisplay:10.37,2013-11-09 11:41:00,
2013-11-09 06:46:00,40.5,32.2,29.83,SSE,152,8.0,8.0,72,0.00,CLR,,0.01,WeatherDisplay:10.37,2013-11-09 11:46:00,
2013-11-09 06:51:00,40.6,31.9,29.83,South,173,5.8,5.8,71,0.00,CLR,,0.01,WeatherDisplay:10.37,2013-11-09 11:51:00,
2013-11-09 06:56:00,40.7,32.0,29.82,SSE,156,3.5,3.5,71,0.00,CLR,,0.01,WeatherDisplay:10.37,2013-11-09 11:56:00,
2013-11-09 07:01:00,40.9,32.2,29.82,SSE,153,9.2,9.2,71,0.00,CLR,,0.01,WeatherDisplay:10.37,2013-11-09 12:01:00,
2013-11-09 07:06:00,41.1,32.1,29.82,SSE,147,6.9,6.9,70,0.00,CLR,,0.01,WeatherDisplay:10.37,2013-11-09 12:06:00,
2013-11-09 07:11:00,41.3,32.2,29.82,South,171,6.9,6.9,70,0.00,CLR,,0.01,WeatherDisplay:10.37,2013-11-09 12:11:00,
2013-11-09 07:16:00,41.4,32.0,29.82,SSE,155,11.5,11.5,69,0.00,CLR,,0.01,WeatherDisplay:10.37,2013-11-09 12:16:00,
2013-11-09 07:21:00,41.5,32.1,29.82,SE,137,10.4,10.4,69,0.00,CLR,,0.01,WeatherDisplay:10.37,2013-11-09 12:21:00,
2013-11-09 07:26:00,41.5,32.4,29.81,SSE,157,10.4,10.4,70,0.00,CLR,,0.01,WeatherDisplay:10.37,2013-11-09 12:26:00,
2013-11-09 07:31:00,41.4,32.3,29.81,South,175,6.9,6.9,70,0.00,CLR,,0.01,WeatherDisplay:10.37,2013-11-09 12:31:00,
2013-11-09 07:36:00,41.5,32.4,29.81,SSE,154,15.0,15.0,70,0.00,CLR,,0.01,WeatherDisplay:10.37,2013-11-09 12:36:00,
2013-11-09 07:41:00,41.5,32.4,29.81,South,173,9.2,9.2,70,0.00,CLR,,0.01,WeatherDisplay:10.37,2013-11-09 12:41:00,
2013-11-09 07:46:00,41.6,32.5,29.80,South,169,5.8,5.8,70,0.00,CLR,,0.01,WeatherDisplay:10.37,2013-11-09 12:46:00,
2013-11-09 07:51:00,41.9,32.5,29.81,SE,134,9.2,9.2,69,0.00,CLR,,0.01,WeatherDisplay:10.37,2013-11-09 12:51:00,
2013-11-09 07:56:00,42.0,32.6,29.80,SSE,149,10.4,10.4,69,0.00,CLR,,0.01,WeatherDisplay:10.37,2013-11-09 12:56:00,
2013-11-09 08:01:00,42.0,32.6,29.80,SSE,163,11.5,11.5,69,0.00,CLR,,0.01,WeatherDisplay:10.37,2013-11-09 13:01:00,
2013-11-09 08:06:00,42.0,32.6,29.80,South,184,10.4,10.4,69,0.00,CLR,,0.01,WeatherDisplay:10.37,2013-11-09 13:06:00,
2013-11-09 08:11:00,42.1,32.7,29.79,SSE,159,4.6,4.6,69,0.00,CLR,,0.01,WeatherDisplay:10.37,2013-11-09 13:11:00,
2013-11-09 08:16:00,42.2,32.4,29.79,South,169,13.8,13.8,68,0.00,CLR,,0.01,WeatherDisplay:10.37,2013-11-09 13:16:00,
2013-11-09 08:21:00,42.5,34.1,29.79,SW,221,8.0,8.0,72,0.00,CLR,,0.01,WeatherDisplay:10.37,2013-11-09 13:21:00,
2013-11-09 08:26:00,42.5,32.7,29.79,South,182,4.6,4.6,68,0.00,CLR,,0.01,WeatherDisplay:10.37,2013-11-09 13:26:00,
2013-11-09 08:31:00,42.5,32.7,29.78,South,188,3.5,3.8,68,0.00,CLR,,0.01,WeatherDisplay:10.37,2013-11-09 13:31:00,
2013-11-09 08:36:00,42.5,33.0,29.78,South,171,6.9,6.9,69,0.00,CLR,,0.01,WeatherDisplay:10.37,2013-11-09 13:36:00,
2013-11-09 08:41:00,42.8,33.3,29.78,South,175,11.5,11.5,69,0.00,CLR,,0.01,WeatherDisplay:10.37,2013-11-09 13:41:00,
2013-11-09 08:46:00,43.1,33.3,29.78,SW,215,11.5,11.5,68,0.00,CLR,,0.01,WeatherDisplay:10.37,2013-11-09 13:46:00,
2013-11-09 08:51:00,43.5,33.3,29.78,SSW,194,15.0,15.0,67,0.00,CLR,,0.01,WeatherDisplay:10.37,2013-11-09 13:51:00,
2013-11-09 08:56:00,43.9,33.6,29.77,SSE,159,8.1,8.1,67,0.00,CLR,,0.01,WeatherDisplay:10.37,2013-11-09 13:56:00,
2013-11-09 09:01:00,44.3,33.7,29.77,South,175,18.4,18.4,66,0.00,CLR,,0.01,WeatherDisplay:10.37,2013-11-09 14:01:00,
2013-11-09 09:06:00,44.4,33.7,29.77,SSE,164,11.5,11.5,66,0.00,CLR,,0.01,WeatherDisplay:10.37,2013-11-09 14:06:00,
2013-11-09 09:11:00,44.2,33.6,29.77,SE,144,10.4,10.4,66,0.00,CLR,,0.01,WeatherDisplay:10.37,2013-11-09 14:11:00,
2013-11-09 09:16:00,44.2,33.9,29.77,SW,225,11.5,11.5,67,0.00,CLR,,0.01,WeatherDisplay:10.37,2013-11-09 14:16:00,
2013-11-09 09:21:00,44.3,34.0,29.76,South,190,13.8,13.8,67,0.00,CLR,,0.01,WeatherDisplay:10.37,2013-11-09 14:21:00,
2013-11-09 09:26:00,45.0,34.3,29.76,SW,221,10.4,10.4,66,0.00,CLR,,0.01,WeatherDisplay:10.37,2013-11-09 14:26:00,
2013-11-09 09:31:00,45.7,35.0,29.76,SSW,210,12.7,12.7,66,0.00,CLR,,0.01,WeatherDisplay:10.37,2013-11-09 14:31:00,
2013-11-09 09:36:00,46.4,35.3,29.76,South,178,23.0,23.0,65,0.00,CLR,,0.01,WeatherDisplay:10.37,2013-11-09 14:36:00,
2013-11-09 09:41:00,46.7,35.6,29.75,SSW,213,26.5,26.5,65,0.00,CLR,,0.01,WeatherDisplay:10.37,2013-11-09 14:41:00,
2013-11-09 09:46:00,46.9,35.7,29.75,South,178,17.3,17.3,65,0.00,CLR,,0.01,WeatherDisplay:10.37,2013-11-09 14:46:00,
2013-11-09 09:51:00,46.9,36.1,29.74,SW,234,13.8,13.8,66,0.00,CLR,,0.01,WeatherDisplay:10.37,2013-11-09 14:51:00,
2013-11-09 09:56:00,47.2,36.0,29.74,SW,215,13.8,13.8,65,0.00,CLR,,0.01,WeatherDisplay:10.37,2013-11-09 14:56:00,
2013-11-09 10:01:00,47.4,36.6,29.74,SSW,198,14.0,14.0,66,0.00,CLR,,0.01,WeatherDisplay:10.37,2013-11-09 15:01:00,
2013-11-09 10:06:00,47.2,36.4,29.74,SW,221,12.0,12.0,66,0.00,CLR,,0.01,WeatherDisplay:10.37,2013-11-09 15:06:00,
2013-11-09 10:11:00,47.0,36.2,29.74,South,188,13.0,13.0,66,0.00,CLR,,0.01,WeatherDisplay:10.37,2013-11-09 15:11:00,
2013-11-09 10:16:00,46.9,36.5,29.73,SSW,206,15.0,15.0,67,0.00,CLR,,0.01,WeatherDisplay:10.37,2013-11-09 15:16:00,
2013-11-09 10:21:00,47.1,36.7,29.74,SW,220,16.0,16.0,67,0.00,CLR,,0.01,WeatherDisplay:10.37,2013-11-09 15:21:00,
2013-11-09 10:26:00,47.5,37.1,29.73,West,273,20.7,20.7,67,0.00,CLR,,0.01,WeatherDisplay:10.37,2013-11-09 15:26:00,
2013-11-09 10:31:00,47.6,37.2,29.73,SSW,203,10.4,10.4,67,0.00,CLR,,0.01,WeatherDisplay:10.37,2013-11-09 15:31:00,
2013-11-09 10:36:00,47.7,36.9,29.73,SSW,199,19.6,19.6,66,0.00,CLR,,0.01,WeatherDisplay:10.37,2013-11-09 15:36:00,
2013-11-09 10:41:00,47.9,37.8,29.73,South,188,9.2,9.2,68,0.00,CLR,,0.01,WeatherDisplay:10.37,2013-11-09 15:41:00,
2013-11-09 10:46:00,48.3,37.5,29.72,SSE,164,9.2,9.2,66,0.00,CLR,,0.01,WeatherDisplay:10.37,2013-11-09 15:46:00,
2013-11-09 10:51:00,48.6,38.1,29.72,SW,233,11.5,11.5,67,0.00,CLR,,0.01,WeatherDisplay:10.37,2013-11-09 15:51:00,
2013-11-09 10:56:00,48.6,37.7,29.72,South,178,12.7,12.7,66,0.00,CLR,,0.01,WeatherDisplay:10.37,2013-11-09 15:56:00,
2013-11-09 11:01:00,48.5,37.7,29.72,SSW,212,12.7,12.7,66,0.00,CLR,,0.01,WeatherDisplay:10.37,2013-11-09 16:01:00,
2013-11-09 11:06:00,48.4,37.9,29.72,SSW,192,11.5,11.5,67,0.00,CLR,,0.01,WeatherDisplay:10.37,2013-11-09 16:06:00,
2013-11-09 11:11:00,48.5,38.0,29.72,SSW,213,17.3,17.3,67,0.00,CLR,,0.01,WeatherDisplay:10.37,2013-11-09 16:11:00,
2013-11-09 11:16:00,48.7,38.2,29.72,SSW,213,5.8,5.8,67,0.00,CLR,,0.01,WeatherDisplay:10.37,2013-11-09 16:16:00,
2013-11-09 11:21:00,48.7,38.2,29.72,South,183,6.9,6.9,67,0.00,CLR,,0.01,WeatherDisplay:10.37,2013-11-09 16:21:00,
2013-11-09 11:26:00,48.9,38.8,29.71,SSW,209,15.0,15.0,68,0.00,CLR,,0.01,WeatherDisplay:10.37,2013-11-09 16:26:00,
2013-11-09 11:31:00,48.9,38.8,29.71,SW,230,16.1,16.1,68,0.00,CLR,,0.01,WeatherDisplay:10.37,2013-11-09 16:31:00,
2013-11-09 11:36:00,49.1,39.0,29.71,WSW,240,15.0,15.0,68,0.00,CLR,,0.01,WeatherDisplay:10.37,2013-11-09 16:36:00,
2013-11-09 11:41:00,49.2,39.1,29.71,SSW,206,0.0,0.1,68,0.00,CLR,,0.01,WeatherDisplay:10.37,2013-11-09 16:41:00,
2013-11-09 11:46:00,49.4,39.3,29.71,SSW,211,13.0,13.0,68,0.00,CLR,,0.01,WeatherDisplay:10.37,2013-11-09 16:46:00,
2013-11-09 11:51:00,49.5,39.7,29.71,WSW,240,6.9,6.9,69,0.00,CLR,,0.01,WeatherDisplay:10.37,2013-11-09 16:51:00,
2013-11-09 11:56:00,49.6,39.5,29.70,SW,214,9.2,9.2,68,0.00,CLR,,0.01,WeatherDisplay:10.37,2013-11-09 16:56:00,
2013-11-09 12:01:00,49.9,40.1,29.70,SSW,195,11.5,11.5,69,0.00,CLR,,0.01,WeatherDisplay:10.37,2013-11-09 17:01:00,
2013-11-09 12:06:00,49.9,40.1,29.70,South,186,13.8,13.8,69,0.00,CLR,,0.01,WeatherDisplay:10.37,2013-11-09 17:06:00,
2013-11-09 12:11:00,49.9,40.1,29.70,South,177,6.9,6.9,69,0.00,CLR,,0.01,WeatherDisplay:10.37,2013-11-09 17:11:00,
2013-11-09 12:16:00,49.9,40.1,29.70,South,177,9.2,9.2,69,0.00,CLR,,0.01,WeatherDisplay:10.37,2013-11-09 17:16:00,
2013-11-09 12:21:00,49.7,39.9,29.70,South,178,12.7,12.7,69,0.00,CLR,,0.01,WeatherDisplay:10.37,2013-11-09 17:21:00,
2013-11-09 12:26:00,49.7,40.3,29.69,SSW,202,15.0,15.0,70,0.00,CLR,,0.01,WeatherDisplay:10.37,2013-11-09 17:26:00,
2013-11-09 12:31:00,49.7,40.3,29.69,West,263,11.5,11.5,70,0.00,CLR,,0.01,WeatherDisplay:10.37,2013-11-09 17:31:00,
2013-11-09 12:36:00,49.7,40.3,29.69,South,175,9.2,9.2,70,0.00,CLR,,0.01,WeatherDisplay:10.37,2013-11-09 17:36:00,
2013-11-09 12:41:00,49.6,40.6,29.69,SSW,196,13.8,13.8,71,0.00,CLR,,0.01,WeatherDisplay:10.37,2013-11-09 17:41:00,
2013-11-09 12:46:00,49.6,40.6,29.69,SSW,211,6.9,6.9,71,0.00,CLR,,0.01,WeatherDisplay:10.37,2013-11-09 17:46:00,
2013-11-09 12:51:00,49.5,40.8,29.68,SW,224,15.0,15.0,72,0.00,CLR,,0.01,WeatherDisplay:10.37,2013-11-09 17:51:00,
2013-11-09 12:56:00,49.5,40.8,29.69,South,187,10.4,10.4,72,0.00,CLR,,0.01,WeatherDisplay:10.37,2013-11-09 17:56:00,
2013-11-09 13:01:00,49.4,40.7,29.69,SSW,205,11.5,11.5,72,0.00,CLR,,0.01,WeatherDisplay:10.37,2013-11-09 18:01:00,
2013-11-09 13:06:00,49.4,40.7,29.68,SSW,202,11.5,11.5,72,0.00,CLR,,0.01,WeatherDisplay:10.37,2013-11-09 18:06:00,
2013-11-09 13:11:00,49.4,40.7,29.68,South,187,10.0,10.0,72,0.00,CLR,,0.01,WeatherDisplay:10.37,2013-11-09 18:11:00,
2013-11-09 13:16:00,49.4,40.7,29.68,SSW,203,12.7,12.7,72,0.00,CLR,,0.01,WeatherDisplay:10.37,2013-11-09 18:16:00,
2013-11-09 13:21:00,49.5,41.2,29.68,SSW,205,11.5,11.5,73,0.00,CLR,,0.01,WeatherDisplay:10.37,2013-11-09 18:21:00,
2013-11-09 13:26:00,49.4,41.1,29.68,SW,218,5.8,5.8,73,0.00,CLR,,0.01,WeatherDisplay:10.37,2013-11-09 18:26:00,
2013-11-09 13:31:00,49.5,41.2,29.68,WSW,250,9.0,9.0,73,0.00,CLR,,0.01,WeatherDisplay:10.37,2013-11-09 18:31:00,
2013-11-09 13:36:00,49.5,41.2,29.68,SW,214,10.0,10.0,73,0.00,CLR,,0.01,WeatherDisplay:10.37,2013-11-09 18:36:00,
2013-11-09 13:41:00,49.6,41.7,29.68,SSW,210,11.5,11.5,74,0.00,CLR,,0.01,WeatherDisplay:10.37,2013-11-09 18:41:00,
2013-11-09 13:46:00,49.6,41.7,29.68,SSW,213,16.1,16.1,74,0.00,CLR,,0.01,WeatherDisplay:10.37,2013-11-09 18:46:00,
2013-11-09 13:51:00,49.7,41.7,29.68,WSW,252,21.9,21.9,74,0.00,CLR,,0.01,WeatherDisplay:10.37,2013-11-09 18:51:00,
2013-11-09 13:56:00,49.6,41.7,29.69,SW,218,19.0,19.0,74,0.00,CLR,,0.01,WeatherDisplay:10.37,2013-11-09 18:56:00,
2013-11-09 14:01:00,49.4,41.5,29.69,SSW,213,21.0,21.0,74,0.00,CLR,,0.01,WeatherDisplay:10.37,2013-11-09 19:01:00,
2013-11-09 14:06:00,49.2,41.6,29.69,West,275,11.5,11.5,75,0.00,CLR,,0.01,WeatherDisplay:10.37,2013-11-09 19:06:00,
2013-11-09 14:11:00,49.0,41.4,29.69,SW,234,24.2,24.2,75,0.00,CLR,,0.01,WeatherDisplay:10.37,2013-11-09 19:11:00,
2013-11-09 14:16:00,48.9,41.3,29.69,SSE,164,4.0,4.0,75,0.00,CLR,,0.01,WeatherDisplay:10.37,2013-11-09 19:16:00,
2013-11-09 14:21:00,48.8,41.2,29.69,WSW,244,16.1,16.1,75,0.00,CLR,,0.01,WeatherDisplay:10.37,2013-11-09 19:21:00,
2013-11-09 14:26:00,48.7,41.1,29.69,South,186,9.2,9.2,75,0.00,CLR,,0.01,WeatherDisplay:10.37,2013-11-09 19:26:00,
2013-11-09 14:31:00,48.6,41.4,29.68,South,184,13.8,13.8,76,0.00,CLR,,0.01,WeatherDisplay:10.37,2013-11-09 19:31:00,
2013-11-09 14:36:00,48.5,41.3,29.69,SSW,192,20.0,20.0,76,0.00,CLR,,0.01,WeatherDisplay:10.37,2013-11-09 19:36:00,
2013-11-09 14:41:00,48.4,41.2,29.69,WSW,242,12.7,12.7,76,0.00,CLR,,0.01,WeatherDisplay:10.37,2013-11-09 19:41:00,
2013-11-09 14:46:00,48.2,41.3,29.69,SW,232,12.0,12.0,77,0.00,CLR,,0.01,WeatherDisplay:10.37,2013-11-09 19:46:00,
2013-11-09 14:51:00,48.2,41.3,29.69,SW,227,9.2,9.2,77,0.00,CLR,,0.01,WeatherDisplay:10.37,2013-11-09 19:51:00,
2013-11-09 14:56:00,48.1,41.2,29.69,SSW,198,10.0,10.0,77,0.00,CLR,,0.01,WeatherDisplay:10.37,2013-11-09 19:56:00,
2013-11-09 15:01:00,48.0,41.1,29.69,SW,221,12.0,12.0,77,0.00,CLR,,0.01,WeatherDisplay:10.37,2013-11-09 20:01:00,
2013-11-09 15:06:00,47.9,41.0,29.70,South,185,16.0,16.0,77,0.00,CLR,,0.01,WeatherDisplay:10.37,2013-11-09 20:06:00,
2013-11-09 15:11:00,47.9,40.7,29.70,SW,226,13.8,13.8,76,0.00,CLR,,0.01,WeatherDisplay:10.37,2013-11-09 20:11:00,
2013-11-09 15:16:00,47.8,40.9,29.70,WSW,246,17.0,17.0,77,0.00,CLR,,0.01,WeatherDisplay:10.37,2013-11-09 20:16:00,
2013-11-09 15:21:00,47.8,40.6,29.70,WSW,256,11.5,11.5,76,0.00,CLR,,0.01,WeatherDisplay:10.37,2013-11-09 20:21:00,
2013-11-09 15:26:00,47.8,40.9,29.70,SW,230,2.3,2.3,77,0.00,CLR,,0.01,WeatherDisplay:10.37,2013-11-09 20:26:00,
2013-11-09 15:31:00,47.7,40.8,29.70,SSW,203,11.5,11.5,77,0.00,CLR,,0.01,WeatherDisplay:10.37,2013-11-09 20:31:00,
2013-11-09 15:36:00,47.7,40.5,29.71,West,259,16.1,16.1,76,0.00,CLR,,0.01,WeatherDisplay:10.37,2013-11-09 20:36:00,
2013-11-09 15:41:00,47.7,40.8,29.71,SSW,193,3.5,3.5,77,0.00,CLR,,0.01,WeatherDisplay:10.37,2013-11-09 20:41:00,
2013-11-09 15:46:00,47.6,40.7,29.71,SW,222,10.4,10.4,77,0.00,CLR,,0.01,WeatherDisplay:10.37,2013-11-09 20:46:00,
2013-11-09 15:51:00,47.6,40.7,29.71,SW,219,16.1,16.1,77,0.00,CLR,,0.01,WeatherDisplay:10.37,2013-11-09 20:51:00,
2013-11-09 15:56:00,47.6,40.7,29.71,WSW,246,12.7,12.7,77,0.00,CLR,,0.01,WeatherDisplay:10.37,2013-11-09 20:56:00,
2013-11-09 16:01:00,47.7,40.2,29.72,WSW,246,16.1,16.1,75,0.00,CLR,,0.01,WeatherDisplay:10.37,2013-11-09 21:01:00,
2013-11-09 16:06:00,47.8,39.2,29.72,West,268,12.7,12.7,72,0.00,CLR,,0.01,WeatherDisplay:10.37,2013-11-09 21:06:00,
2013-11-09 16:11:00,47.9,38.2,29.72,SW,225,26.5,26.5,69,0.00,CLR,,0.01,WeatherDisplay:10.37,2013-11-09 21:11:00,
2013-11-09 16:16:00,47.9,38.2,29.71,SW,226,21.0,21.0,69,0.00,CLR,,0.01,WeatherDisplay:10.37,2013-11-09 21:16:00,
2013-11-09 16:21:00,47.8,38.5,29.72,SW,234,13.8,13.8,70,0.00,CLR,,0.01,WeatherDisplay:10.37,2013-11-09 21:21:00,
2013-11-09 16:26:00,47.8,38.5,29.72,SW,220,14.0,14.0,70,0.00,CLR,,0.01,WeatherDisplay:10.37,2013-11-09 21:26:00,
2013-11-09 16:31:00,47.8,38.5,29.72,WSW,250,15.0,15.0,70,0.00,CLR,,0.01,WeatherDisplay:10.37,2013-11-09 21:31:00,
2013-11-09 16:36:00,47.8,38.5,29.72,SW,235,6.9,6.9,70,0.00,CLR,,0.01,WeatherDisplay:10.37,2013-11-09 21:36:00,
2013-11-09 16:41:00,47.8,38.5,29.72,WSW,246,17.3,17.3,70,0.00,CLR,,0.01,WeatherDisplay:10.37,2013-11-09 21:41:00,
2013-11-09 16:46:00,47.8,38.5,29.73,West,281,11.5,11.5,70,0.00,CLR,,0.01,WeatherDisplay:10.37,2013-11-09 21:46:00,
2013-11-09 16:51:00,47.8,38.5,29.73,WNW,283,15.0,15.0,70,0.00,CLR,,0.01,WeatherDisplay:10.37,2013-11-09 21:51:00,
2013-11-09 16:56:00,47.8,38.5,29.73,South,187,15.0,15.0,70,0.00,CLR,,0.01,WeatherDisplay:10.37,2013-11-09 21:56:00,
2013-11-09 17:01:00,47.8,38.5,29.73,SW,227,10.4,10.4,70,0.00,CLR,,0.01,WeatherDisplay:10.37,2013-11-09 22:01:00,
2013-11-09 17:06:00,47.7,38.4,29.73,WSW,254,9.2,9.2,70,0.00,CLR,,0.01,WeatherDisplay:10.37,2013-11-09 22:06:00,
2013-11-09 17:11:00,47.7,38.4,29.73,West,265,17.3,17.3,70,0.00,CLR,,0.01,WeatherDisplay:10.37,2013-11-09 22:11:00,
2013-11-09 17:16:00,47.7,38.4,29.74,WSW,252,10.4,10.4,70,0.00,CLR,,0.01,WeatherDisplay:10.37,2013-11-09 22:16:00,
2013-11-09 17:21:00,47.6,38.7,29.74,SSW,213,5.0,0.0,71,0.00,CLR,,0.01,WeatherDisplay:10.37,2013-11-09 22:21:00,
2013-11-09 17:26:00,47.6,38.7,29.74,SW,231,12.7,12.7,71,0.00,CLR,,0.01,WeatherDisplay:10.37,2013-11-09 22:26:00,
2013-11-09 17:31:00,47.5,38.9,29.74,SSW,202,15.0,15.0,72,0.00,CLR,,0.01,WeatherDisplay:10.37,2013-11-09 22:31:00,
2013-11-09 17:36:00,47.5,38.9,29.74,SSW,207,18.0,18.0,72,0.00,CLR,,0.01,WeatherDisplay:10.37,2013-11-09 22:36:00,
2013-11-09 17:41:00,47.4,39.2,29.74,West,259,8.1,8.1,73,0.00,CLR,,0.01,WeatherDisplay:10.37,2013-11-09 22:41:00,
2013-11-09 17:46:00,47.4,39.2,29.74,SW,221,10.4,10.4,73,0.00,CLR,,0.01,WeatherDisplay:10.37,2013-11-09 22:46:00,
2013-11-09 17:51:00,47.4,39.2,29.74,SSW,213,7.0,7.0,73,0.00,CLR,,0.01,WeatherDisplay:10.37,2013-11-09 22:51:00,
2013-11-09 17:56:00,47.4,39.5,29.74,West,274,9.0,9.0,74,0.00,CLR,,0.01,WeatherDisplay:10.37,2013-11-09 22:56:00,
2013-11-09 18:01:00,47.4,39.2,29.74,WSW,242,12.7,12.7,73,0.00,CLR,,0.01,WeatherDisplay:10.37,2013-11-09 23:01:00,
2013-11-09 18:06:00,47.4,39.5,29.75,SSW,200,10.4,10.4,74,0.00,CLR,,0.01,WeatherDisplay:10.37,2013-11-09 23:06:00,
2013-11-09 18:11:00,47.5,39.6,29.75,SW,235,16.1,16.1,74,0.00,CLR,,0.01,WeatherDisplay:10.37,2013-11-09 23:11:00,
2013-11-09 18:16:00,47.5,39.6,29.75,SW,226,13.8,13.8,74,0.00,CLR,,0.01,WeatherDisplay:10.37,2013-11-09 23:16:00,
2013-11-09 18:21:00,47.4,39.5,29.75,WSW,248,13.8,13.8,74,0.00,CLR,,0.01,WeatherDisplay:10.37,2013-11-09 23:21:00,
2013-11-09 18:26:00,47.4,39.5,29.75,WNW,282,4.6,4.6,74,0.00,CLR,,0.01,WeatherDisplay:10.37,2013-11-09 23:26:00,
2013-11-09 18:31:00,47.4,39.5,29.75,WSW,238,10.0,10.0,74,0.00,CLR,,0.01,WeatherDisplay:10.37,2013-11-09 23:31:00,
2013-11-09 18:36:00,47.4,39.5,29.75,WSW,243,16.1,16.1,74,0.00,CLR,,0.01,WeatherDisplay:10.37,2013-11-09 23:36:00,
2013-11-09 18:41:00,47.5,39.3,29.75,SW,215,18.4,18.4,73,0.00,CLR,,0.01,WeatherDisplay:10.37,2013-11-09 23:41:00,
2013-11-09 18:46:00,47.6,39.4,29.75,WSW,248,15.0,15.0,73,0.00,CLR,,0.01,WeatherDisplay:10.37,2013-11-09 23:46:00,
2013-11-09 18:51:00,47.6,39.0,29.76,South,188,9.2,9.2,72,0.00,CLR,,0.01,WeatherDisplay:10.37,2013-11-09 23:51:00,
2013-11-09 18:56:00,47.7,39.1,29.76,SSW,209,8.0,8.0,72,0.00,CLR,,0.01,WeatherDisplay:10.37,2013-11-09 23:56:00,
2013-11-09 19:01:00,47.7,39.1,29.76,WSW,250,12.7,12.7,72,0.00,CLR,,0.01,WeatherDisplay:10.37,2013-11-10 00:01:00,
2013-11-09 19:06:00,47.6,39.0,29.76,WNW,285,13.0,13.0,72,0.00,CLR,,0.01,WeatherDisplay:10.37,2013-11-10 00:06:00,
2013-11-09 19:11:00,47.5,39.3,29.76,SW,229,11.5,11.5,73,0.00,CLR,,0.01,WeatherDisplay:10.37,2013-11-10 00:11:00,
2013-11-09 19:16:00,47.4,38.8,29.76,WSW,240,8.0,8.0,72,0.00,CLR,,0.01,WeatherDisplay:10.37,2013-11-10 00:16:00,
2013-11-09 19:21:00,47.3,39.1,29.76,SSW,202,10.0,10.0,73,0.00,CLR,,0.01,WeatherDisplay:10.37,2013-11-10 00:21:00,
2013-11-09 19:26:00,47.2,39.0,29.77,WSW,250,19.0,19.0,73,0.00,CLR,,0.01,WeatherDisplay:10.37,2013-11-10 00:26:00,
2013-11-09 19:31:00,47.0,38.4,29.76,WSW,258,19.6,19.6,72,0.00,CLR,,0.01,WeatherDisplay:10.37,2013-11-10 00:31:00,
2013-11-09 19:36:00,46.9,38.3,29.77,SW,223,11.5,11.5,72,0.00,CLR,,0.01,WeatherDisplay:10.37,2013-11-10 00:36:00,
2013-11-09 19:41:00,46.8,38.2,29.77,SW,222,14.0,14.0,72,0.00,CLR,,0.01,WeatherDisplay:10.37,2013-11-10 00:41:00,
2013-11-09 19:46:00,46.6,38.8,29.77,SW,221,19.6,19.6,74,0.00,CLR,,0.01,WeatherDisplay:10.37,2013-11-10 00:46:00,
2013-11-09 19:51:00,46.4,38.6,29.77,West,279,11.5,11.5,74,0.00,CLR,,0.01,WeatherDisplay:10.37,2013-11-10 00:51:00,
2013-11-09 19:56:00,46.3,38.8,29.77,WSW,245,17.3,17.3,75,0.00,CLR,,0.01,WeatherDisplay:10.37,2013-11-10 00:56:00,
2013-11-09 20:01:00,46.3,38.8,29.78,WSW,242,13.8,13.8,75,0.00,CLR,,0.01,WeatherDisplay:10.37,2013-11-10 01:01:00,
2013-11-09 20:06:00,46.2,39.1,29.78,SSW,213,19.0,19.0,76,0.00,CLR,,0.01,WeatherDisplay:10.37,2013-11-10 01:06:00,
2013-11-09 20:11:00,46.1,39.0,29.78,SW,215,11.5,11.5,76,0.00,CLR,,0.01,WeatherDisplay:10.37,2013-11-10 01:11:00,
2013-11-09 20:16:00,46.0,38.9,29.78,WSW,238,15.0,15.0,76,0.00,CLR,,0.01,WeatherDisplay:10.37,2013-11-10 01:16:00,
2013-11-09 20:21:00,45.9,39.1,29.78,SSW,207,5.8,5.8,77,0.00,CLR,,0.01,WeatherDisplay:10.37,2013-11-10 01:21:00,
2013-11-09 20:26:00,45.9,39.1,29.78,SW,234,8.1,8.1,77,0.00,CLR,,0.01,WeatherDisplay:10.37,2013-11-10 01:26:00,
2013-11-09 20:31:00,45.8,39.0,29.78,West,264,11.5,11.5,77,0.00,CLR,,0.01,WeatherDisplay:10.37,2013-11-10 01:31:00,
2013-11-09 20:36:00,45.8,38.7,29.78,West,261,11.5,11.5,76,0.00,CLR,,0.01,WeatherDisplay:10.37,2013-11-10 01:36:00,
2013-11-09 20:41:00,45.7,38.9,29.78,SW,232,11.5,11.5,77,0.00,CLR,,0.01,WeatherDisplay:10.37,2013-11-10 01:41:00,
2013-11-09 20:46:00,45.7,38.9,29.78,West,260,10.4,10.4,77,0.00,CLR,,0.01,WeatherDisplay:10.37,2013-11-10 01:46:00,
2013-11-09 20:51:00,45.6,38.8,29.78,SW,230,11.5,11.5,77,0.00,CLR,,0.01,WeatherDisplay:10.37,2013-11-10 01:51:00,
2013-11-09 20:56:00,45.5,38.7,29.78,SW,216,16.1,16.1,77,0.00,CLR,,0.01,WeatherDisplay:10.37,2013-11-10 01:56:00,
2013-11-09 21:01:00,45.6,38.5,29.79,SW,223,19.6,19.6,76,0.00,CLR,,0.01,WeatherDisplay:10.37,2013-11-10 02:01:00,
2013-11-09 21:06:00,45.6,38.1,29.78,West,261,17.3,17.3,75,0.00,CLR,,0.01,WeatherDisplay:10.37,2013-11-10 02:06:00,
2013-11-09 21:11:00,45.6,37.8,29.78,West,259,13.0,13.0,74,0.00,CLR,,0.01,WeatherDisplay:10.37,2013-11-10 02:11:00,
2013-11-09 21:16:00,45.8,38.0,29.78,SSW,211,12.7,12.7,74,0.00,CLR,,0.01,WeatherDisplay:10.37,2013-11-10 02:16:00,
2013-11-09 21:21:00,45.7,37.9,29.79,West,259,3.5,3.5,74,0.00,CLR,,0.01,WeatherDisplay:10.37,2013-11-10 02:21:00,
2013-11-09 21:26:00,45.7,37.2,29.79,SSW,210,15.0,15.0,72,0.00,CLR,,0.01,WeatherDisplay:10.37,2013-11-10 02:26:00,
2013-11-09 21:31:00,45.7,36.8,29.78,SW,232,13.8,13.8,71,0.00,CLR,,0.01,WeatherDisplay:10.37,2013-11-10 02:31:00,
2013-11-09 21:36:00,45.6,36.0,29.79,WSW,251,15.0,15.0,69,0.00,CLR,,0.01,WeatherDisplay:10.37,2013-11-10 02:36:00,
2013-11-09 21:41:00,45.6,36.0,29.79,SSE,160,5.8,5.8,69,0.00,CLR,,0.01,WeatherDisplay:10.37,2013-11-10 02:41:00,
2013-11-09 21:46:00,45.6,35.6,29.79,SW,236,15.0,15.0,68,0.00,CLR,,0.01,WeatherDisplay:10.37,2013-11-10 02:46:00,
2013-11-09 21:51:00,45.5,35.2,29.79,WSW,248,16.1,16.1,67,0.00,CLR,,0.01,WeatherDisplay:10.37,2013-11-10 02:51:00,
2013-11-09 21:56:00,45.4,34.3,29.80,West,271,5.8,5.9,65,0.00,CLR,,0.01,WeatherDisplay:10.37,2013-11-10 02:56:00,
2013-11-09 22:01:00,45.4,34.3,29.80,WSW,244,13.8,13.8,65,0.00,CLR,,0.01,WeatherDisplay:10.37,2013-11-10 03:01:00,
2013-11-09 22:06:00,45.3,34.2,29.80,SSW,208,6.0,6.4,65,0.00,CLR,,0.01,WeatherDisplay:10.37,2013-11-10 03:06:00,
2013-11-09 22:11:00,45.2,34.1,29.81,SW,226,16.0,16.0,65,0.00,CLR,,0.01,WeatherDisplay:10.37,2013-11-10 03:11:00,
2013-11-09 22:16:00,45.0,33.5,29.80,SW,236,11.5,11.5,64,0.00,CLR,,0.01,WeatherDisplay:10.37,2013-11-10 03:16:00,
2013-11-09 22:21:00,45.0,33.5,29.81,SW,227,14.0,14.0,64,0.00,CLR,,0.01,WeatherDisplay:10.37,2013-11-10 03:21:00,
2013-11-09 22:26:00,44.9,33.5,29.80,WSW,250,10.4,10.4,64,0.00,CLR,,0.01,WeatherDisplay:10.37,2013-11-10 03:26:00,
2013-11-09 22:31:00,44.8,33.4,29.80,SSW,206,19.6,19.6,64,0.00,CLR,,0.01,WeatherDisplay:10.37,2013-11-10 03:31:00,
2013-11-09 22:36:00,44.7,33.3,29.80,SW,229,18.0,18.0,64,0.00,CLR,,0.01,WeatherDisplay:10.37,2013-11-10 03:36:00,
2013-11-09 22:41:00,44.7,33.3,29.81,West,260,15.0,15.0,64,0.00,CLR,,0.01,WeatherDisplay:10.37,2013-11-10 03:41:00,
2013-11-09 22:46:00,44.5,33.5,29.81,SW,222,10.4,10.4,65,0.00,CLR,,0.01,WeatherDisplay:10.37,2013-11-10 03:46:00,
2013-11-09 22:51:00,44.4,33.4,29.81,West,259,6.0,6.0,65,0.00,CLR,,0.01,WeatherDisplay:10.37,2013-11-10 03:51:00,
2013-11-09 22:56:00,44.2,33.2,29.81,WSW,244,16.1,16.1,65,0.00,CLR,,0.01,WeatherDisplay:10.37,2013-11-10 03:56:00,
2013-11-09 23:01:00,44.1,33.5,29.81,WNW,290,10.4,10.4,66,0.00,CLR,,0.01,WeatherDisplay:10.37,2013-11-10 04:01:00,
2013-11-09 23:06:00,44.0,33.4,29.81,WSW,239,16.1,16.1,66,0.00,CLR,,0.01,WeatherDisplay:10.37,2013-11-10 04:06:00,
2013-11-09 23:11:00,43.8,33.2,29.81,WNW,282,18.4,18.4,66,0.00,CLR,,0.01,WeatherDisplay:10.37,2013-11-10 04:11:00,
2013-11-09 23:16:00,43.8,32.8,29.81,SSW,211,11.5,11.5,65,0.00,CLR,,0.01,WeatherDisplay:10.37,2013-11-10 04:16:00,
2013-11-09 23:21:00,43.7,32.7,29.81,WSW,242,5.0,5.0,65,0.00,CLR,,0.01,WeatherDisplay:10.37,2013-11-10 04:21:00,
2013-11-09 23:26:00,43.6,32.6,29.81,WSW,244,11.5,11.5,65,0.00,CLR,,0.01,WeatherDisplay:10.37,2013-11-10 04:26:00,
2013-11-09 23:31:00,43.5,31.7,29.81,WSW,249,10.4,10.4,63,0.00,CLR,,0.01,WeatherDisplay:10.37,2013-11-10 04:31:00,
2013-11-09 23:36:00,43.4,30.8,29.81,NW,313,19.6,19.6,61,0.00,CLR,,0.01,WeatherDisplay:10.37,2013-11-10 04:36:00,
2013-11-09 23:41:00,43.4,30.4,29.81,West,277,4.0,4.0,60,0.00,CLR,,0.01,WeatherDisplay:10.37,2013-11-10 04:41:00,
2013-11-09 23:46:00,43.4,30.0,29.82,WSW,257,21.0,21.0,59,0.00,CLR,,0.01,WeatherDisplay:10.37,2013-11-10 04:46:00,
2013-11-09 23:51:00,43.4,29.6,29.81,WNW,295,17.3,17.3,58,0.00,CLR,,0.01,WeatherDisplay:10.37,2013-11-10 04:51:00,
2013-11-09 23:56:00,43.4,29.6,29.81,WSW,244,12.7,12.7,58,0.00,CLR,,0.01,WeatherDisplay:10.37,2013-11-10 04:56:00,